Time;durP1;ratioP1;P1;durP2;ratioP2;P2;SDS_P1;SDS_P2;PMS_P1;PMS_P2;Temp;Humidity;BMP_temperature;BMP_pressure;BME280_temperature;BME280_humidity;BME280_pressure;Samples;Min_cycle;Max_cycle;Signal;HPM_P1;HPM_P2
2024/01/13 00:01:13;;;;;;;11.40;7.50;;;;;;;0.56;84.77;100821.38;129920;1270;114722;-63
2024/01/13 00:04:31;;;;;;;13.50;6.70;;;;;;;0.57;84.49;100814.16;129861;1258;114718;-63
2024/01/13 00:07:33;;;;;;;13.70;8.00;;;;;;;0.56;84.51;100809.43;130071;1257;114779;-63
2024/01/13 00:10:35;;;;;;;11.60;7.00;;;;;;;0.56;84.72;100810.83;129779;1260;114786;-65
2024/01/13 00:13:37;;;;;;;12.30;7.20;;;;;;;0.56;84.50;100810.48;130212;1260;114709;-62
2024/01/13 00:16:39;;;;;;;14.30;7.40;;;;;;;0.58;84.52;100807.65;129807;1261;114724;-63
2024/01/13 00:19:41;;;;;;;13.50;7.20;;;;;;;0.61;84.80;100804.15;130269;1261;114691;-63
2024/01/13 00:22:47;;;;;;;13.70;7.10;;;;;;;0.62;84.74;100809.06;129751;1273;116574;-64
2024/01/13 00:25:49;;;;;;;;;;;;;;;0.63;84.39;100810.65;129819;1260;115171;-64
2024/01/13 00:28:51;;;;;;;9.70;5.40;;;;;;;0.63;84.85;100808.36;130136;1259;114808;-63
2024/01/13 00:31:53;;;;;;;12.60;6.90;;;;;;;0.63;84.76;100805.73;130243;1261;114988;-63
2024/01/13 00:34:55;;;;;;;12.30;6.00;;;;;;;0.63;84.89;100802.73;129855;1261;114750;-64
2024/01/13 00:37:57;;;;;;;12.80;7.00;;;;;;;0.64;84.75;100794.83;130088;1259;114804;-64
2024/01/13 00:40:59;;;;;;;12.40;6.70;;;;;;;0.64;84.70;100791.15;129740;1271;114702;-62
2024/01/13 00:44:01;;;;;;;14.70;8.70;;;;;;;0.66;84.87;100788.68;129480;1261;116325;-63
2024/01/13 00:47:03;;;;;;;13.50;7.80;;;;;;;0.69;84.82;100788.14;130181;1260;115087;-62
2024/01/13 00:50:06;;;;;;;14.10;7.40;;;;;;;0.70;84.93;100787.80;129717;1258;115269;-62
2024/01/13 00:53:08;;;;;;;13.90;7.40;;;;;;;0.72;84.86;100786.21;129598;1257;116078;-63
2024/01/13 00:56:10;;;;;;;14.20;8.10;;;;;;;0.73;85.04;100788.14;129885;1278;114725;-64
2024/01/13 00:59:13;;;;;;;13.70;7.70;;;;;;;0.75;84.84;100782.86;130113;1260;114739;-64
2024/01/13 01:02:15;;;;;;;14.80;7.60;;;;;;;0.76;85.17;100770.20;130154;1278;114786;-64
2024/01/13 01:05:17;;;;;;;15.70;7.80;;;;;;;0.77;84.88;100769.48;130037;1278;114746;-64
2024/01/13 01:08:19;;;;;;;13.50;7.40;;;;;;;0.77;85.48;100765.98;129854;1261;114853;-64
2024/01/13 01:11:21;;;;;;;15.40;8.80;;;;;;;0.80;85.19;100763.69;130161;1260;114715;-63
2024/01/13 01:14:23;;;;;;;13.30;7.40;;;;;;;0.82;85.34;100762.81;130080;1278;114836;-63
2024/01/13 01:17:25;;;;;;;14.20;7.40;;;;;;;0.83;85.41;100765.45;130076;1278;114738;-63
2024/01/13 01:20:26;;;;;;;12.30;6.00;;;;;;;0.84;85.01;100769.13;130128;1260;114696;-63
2024/01/13 01:23:28;;;;;;;13.50;8.80;;;;;;;0.84;85.24;100765.60;130055;1278;128756;-63
2024/01/13 01:26:30;;;;;;;13.00;7.60;;;;;;;0.86;85.08;100759.80;130130;1258;115215;-64
2024/01/13 01:29:32;;;;;;;12.30;6.30;;;;;;;0.84;84.94;100753.65;130118;1259;114792;-64
2024/01/13 01:32:34;;;;;;;11.50;7.30;;;;;;;0.83;85.06;100751.20;130142;1278;115504;-64
2024/01/13 01:35:36;;;;;;;12.60;7.80;;;;;;;0.83;85.40;100753.83;130071;1257;115057;-64
2024/01/13 01:38:38;;;;;;;13.20;7.90;;;;;;;0.82;85.46;100750.33;130132;1259;114735;-65
2024/01/13 01:41:40;;;;;;;11.90;7.30;;;;;;;0.82;85.37;100741.89;129684;1270;114844;-65
2024/01/13 01:44:42;;;;;;;14.10;7.00;;;;;;;0.82;85.15;100737.14;130057;1278;115506;-64
2024/01/13 01:47:44;;;;;;;11.80;6.50;;;;;;;0.82;85.23;100731.16;130182;1278;114787;-64
2024/01/13 01:50:46;;;;;;;12.00;7.70;;;;;;;0.81;85.56;100726.06;129750;1278;114897;-63
2024/01/13 01:53:50;;;;;;;12.60;7.00;;;;;;;0.81;85.33;100723.96;129915;1260;114731;-64
2024/01/13 01:56:52;;;;;;;11.80;6.50;;;;;;;0.81;85.12;100715.70;130112;1270;114789;-65
2024/01/13 01:59:54;;;;;;;10.40;6.30;;;;;;;0.83;85.40;100711.46;129919;1260;114832;-64
2024/01/13 02:02:56;;;;;;;10.80;6.10;;;;;;;0.85;85.11;100706.88;129587;1270;114909;-64
2024/01/13 02:06:00;;;;;;;12.10;5.70;;;;;;;0.85;85.61;100698.96;130151;1255;114878;-64
2024/01/13 02:09:05;;;;;;;12.10;6.00;;;;;;;0.85;85.20;100693.16;129911;1259;114706;-63
2024/01/13 02:12:08;;;;;;;12.20;6.30;;;;;;;0.87;85.39;100688.77;130323;1256;115143;-63
2024/01/13 02:15:10;;;;;;;11.60;6.00;;;;;;;0.89;85.20;100685.26;130218;1278;114709;-63
2024/01/13 02:18:12;;;;;;;11.00;7.10;;;;;;;0.91;85.19;100684.87;130044;1260;114792;-63
2024/01/13 02:21:14;;;;;;;9.70;6.40;;;;;;;0.92;85.28;100681.54;129511;1265;114739;-63
2024/01/13 02:24:16;;;;;;;11.10;7.10;;;;;;;0.94;85.05;100684.52;130053;1274;114844;-63
2024/01/13 02:27:18;;;;;;;12.20;6.30;;;;;;;0.95;84.95;100681.35;129852;1259;114839;-63
2024/01/13 02:30:21;;;;;;;11.70;7.20;;;;;;;0.96;85.31;100677.13;129813;1259;115335;-62
2024/01/13 02:33:23;;;;;;;12.40;5.70;;;;;;;0.98;85.25;100682.06;129825;1278;115260;-63
2024/01/13 02:36:25;;;;;;;11.40;6.00;;;;;;;0.99;85.10;100679.05;129954;1278;114779;-63
2024/01/13 02:39:27;;;;;;;11.20;6.30;;;;;;;1.00;85.01;100675.70;129818;1260;114703;-63
2024/01/13 02:42:29;;;;;;;10.60;5.90;;;;;;;1.00;85.04;100672.71;129792;1260;115324;-63
2024/01/13 02:45:31;;;;;;;10.50;5.40;;;;;;;1.01;84.94;100671.13;130228;1261;115218;-63
2024/01/13 02:48:40;;;;;;;10.30;5.60;;;;;;;1.01;85.03;100667.60;129783;1258;128786;-62
2024/01/13 02:51:42;;;;;;;11.40;5.50;;;;;;;1.01;85.03;100658.99;129573;1272;116377;-62
2024/01/13 02:54:44;;;;;;;13.70;6.00;;;;;;;1.00;84.88;100665.51;129758;1259;115107;-64
2024/01/13 02:57:46;;;;;;;12.70;6.70;;;;;;;1.00;85.19;100659.35;129936;1259;114812;-63
2024/01/13 03:00:48;;;;;;;9.10;5.60;;;;;;;1.01;85.19;100656.88;129847;1261;114792;-63
2024/01/13 03:03:50;;;;;;;13.90;6.50;;;;;;;1.02;85.26;100653.89;129774;1261;115224;-63
2024/01/13 03:06:53;;;;;;;11.00;5.20;;;;;;;1.03;84.94;100650.00;129737;1256;114793;-63
2024/01/13 03:09:55;;;;;;;12.40;6.20;;;;;;;1.05;85.08;100657.73;129841;1278;130094;-63
2024/01/13 03:12:57;;;;;;;12.80;5.80;;;;;;;1.07;85.06;100658.97;129862;1261;114726;-63
2024/01/13 03:15:59;;;;;;;11.10;6.20;;;;;;;1.07;84.98;100651.75;129889;1256;115183;-63
2024/01/13 03:19:02;;;;;;;11.70;6.30;;;;;;;1.08;85.27;100652.64;129526;1257;114983;-63
2024/01/13 03:22:04;;;;;;;11.90;7.10;;;;;;;1.08;85.29;100647.52;129876;1259;114727;-63
2024/01/13 03:25:07;;;;;;;10.40;5.80;;;;;;;1.07;85.26;100648.41;129831;1256;114753;-63
2024/01/13 03:28:08;;;;;;;11.50;5.70;;;;;;;1.06;85.12;100656.34;130245;1273;114743;-63
2024/01/13 03:31:12;;;;;;;13.10;6.00;;;;;;;1.06;85.10;100650.71;129471;1263;127771;-63
2024/01/13 03:34:14;;;;;;;10.80;5.90;;;;;;;1.04;85.17;100648.97;129833;1261;115199;-63
2024/01/13 03:37:16;;;;;;;8.60;5.90;;;;;;;1.06;85.17;100647.37;129927;1254;114769;-63
2024/01/13 03:40:18;;;;;;;10.40;6.60;;;;;;;1.07;85.22;100645.96;129965;1257;114798;-63
2024/01/13 03:43:20;;;;;;;11.50;6.00;;;;;;;1.07;85.19;100642.27;130016;1255;114878;-63
2024/01/13 03:46:23;;;;;;;11.40;6.20;;;;;;;1.07;85.21;100641.38;130309;1258;114711;-63
2024/01/13 03:49:25;;;;;;;11.70;6.00;;;;;;;1.07;85.35;100638.40;129962;1259;114718;-62
2024/01/13 03:52:27;;;;;;;11.70;7.40;;;;;;;1.08;85.32;100632.23;129928;1260;116005;-63
2024/01/13 03:55:29;;;;;;;10.80;6.60;;;;;;;1.09;85.41;100628.17;129889;1277;114745;-64
2024/01/13 03:58:31;;;;;;;12.30;6.80;;;;;;;1.09;85.22;100625.36;129814;1259;114707;-63
2024/01/13 04:01:34;;;;;;;11.30;6.40;;;;;;;1.09;85.27;100622.73;129953;1259;114702;-63
2024/01/13 04:04:38;;;;;;;13.40;6.40;;;;;;;1.09;85.28;100614.10;130003;1260;114702;-63
2024/01/13 04:07:40;;;;;;;12.30;6.40;;;;;;;1.08;85.51;100605.48;129693;1259;114776;-63
2024/01/13 04:10:42;;;;;;;9.50;5.70;;;;;;;1.08;85.15;100602.50;129853;1259;114728;-63
2024/01/13 04:13:44;;;;;;;11.00;6.20;;;;;;;1.08;85.29;100601.80;130073;1254;114747;-63
2024/01/13 04:16:47;;;;;;;9.90;6.00;;;;;;;1.08;85.29;100604.95;129839;1277;115097;-63
2024/01/13 04:19:48;;;;;;;11.10;6.00;;;;;;;1.09;85.27;100602.84;130014;1258;114744;-63
2024/01/13 04:22:51;;;;;;;12.50;6.00;;;;;;;1.10;85.32;100601.27;129837;1258;115162;-63
2024/01/13 04:25:53;;;;;;;12.40;7.20;;;;;;;1.10;85.30;100606.36;129901;1254;115377;-63
2024/01/13 04:28:55;;;;;;;9.70;5.50;;;;;;;1.11;85.09;100609.70;129674;1262;114782;-63
2024/01/13 04:31:57;;;;;;;9.30;5.90;;;;;;;1.11;85.38;100610.21;129792;1277;115080;-63
2024/01/13 04:34:59;;;;;;;12.10;7.60;;;;;;;1.11;85.37;100610.92;129970;1254;114743;-63
2024/01/13 04:38:01;;;;;;;10.90;6.50;;;;;;;1.13;85.21;100608.82;129801;1278;115341;-63
2024/01/13 04:41:04;;;;;;;11.40;6.30;;;;;;;1.12;85.27;100611.44;129672;1278;115305;-63
2024/01/13 04:44:08;;;;;;;12.40;6.50;;;;;;;1.13;84.86;100609.69;129969;1255;114811;-63
2024/01/13 04:47:10;;;;;;;10.50;6.90;;;;;;;1.12;85.02;100613.56;130280;1257;114839;-63
2024/01/13 04:50:12;;;;;;;11.60;6.90;;;;;;;1.12;85.06;100610.22;129545;1273;114770;-63
2024/01/13 04:53:15;;;;;;;10.50;6.80;;;;;;;1.13;84.98;100609.69;129651;1259;115010;-63
2024/01/13 04:56:17;;;;;;;10.20;6.50;;;;;;;1.14;85.21;100604.23;129937;1271;114715;-63
2024/01/13 04:59:19;;;;;;;14.80;7.10;;;;;;;1.15;85.22;100600.52;129488;1275;114927;-62
2024/01/13 05:02:21;;;;;;;11.00;5.60;;;;;;;1.17;85.05;100596.46;129727;1261;115211;-63
2024/01/13 05:05:23;;;;;;;9.50;6.00;;;;;;;1.19;85.15;100589.06;130153;1257;114786;-63
2024/01/13 05:08:26;;;;;;;9.20;5.80;;;;;;;1.20;85.16;100586.77;129787;1275;114728;-63
2024/01/13 05:11:29;;;;;;;9.20;5.00;;;;;;;1.21;85.07;100587.83;129862;1261;114801;-63
2024/01/13 05:14:31;;;;;;;11.40;5.70;;;;;;;1.19;85.02;100586.60;129979;1259;114751;-63
2024/01/13 05:17:33;;;;;;;12.60;7.50;;;;;;;1.18;85.21;100585.19;129890;1259;114723;-63
2024/01/13 05:20:35;;;;;;;11.80;7.00;;;;;;;1.18;85.08;100584.15;129544;1278;114732;-63
2024/01/13 05:23:37;;;;;;;10.80;6.00;;;;;;;1.19;85.02;100579.03;129911;1272;114725;-63
2024/01/13 05:26:39;;;;;;;10.30;6.00;;;;;;;1.19;85.17;100576.21;129897;1275;114948;-63
2024/01/13 05:29:42;;;;;;;12.30;6.20;;;;;;;1.19;84.83;100578.33;129596;1260;115177;-62
2024/01/13 05:32:44;;;;;;;12.10;6.40;;;;;;;1.19;85.12;100572.52;129857;1259;114766;-63
2024/01/13 05:35:46;;;;;;;9.20;5.70;;;;;;;1.21;85.25;100569.70;129919;1259;114839;-62
2024/01/13 05:38:48;;;;;;;9.70;5.90;;;;;;;1.23;85.06;100558.80;129835;1277;128563;-63
2024/01/13 05:41:50;;;;;;;11.20;6.40;;;;;;;1.24;84.93;100551.04;129957;1259;114714;-62
2024/01/13 05:44:53;;;;;;;10.30;6.40;;;;;;;1.25;84.81;100548.73;129926;1259;115756;-63
2024/01/13 05:47:55;;;;;;;8.90;4.70;;;;;;;1.25;84.79;100554.19;129693;1263;114937;-63
2024/01/13 05:50:57;;;;;;;8.40;5.80;;;;;;;1.24;85.11;100561.42;129871;1259;114712;-62
2024/01/13 05:53:59;;;;;;;8.30;5.20;;;;;;;1.25;85.14;100568.96;130000;1271;115164;-62
2024/01/13 05:57:02;;;;;;;10.30;5.60;;;;;;;1.26;85.06;100574.94;129871;1257;114744;-62
2024/01/13 06:00:06;;;;;;;10.50;5.30;;;;;;;1.28;85.22;100568.41;129878;1259;114812;-62
2024/01/13 06:03:07;;;;;;;8.80;5.00;;;;;;;1.29;85.19;100563.14;130058;1254;115303;-63
2024/01/13 06:06:10;;;;;;;9.70;5.60;;;;;;;1.31;85.29;100560.66;129873;1259;114705;-63
2024/01/13 06:09:12;;;;;;;10.50;5.10;;;;;;;1.32;85.23;100557.31;130025;1254;115253;-62
2024/01/13 06:12:14;;;;;;;9.50;5.70;;;;;;;1.31;85.42;100557.14;129782;1258;116377;-63
2024/01/13 06:15:17;;;;;;;9.00;4.90;;;;;;;1.31;85.00;100552.56;129895;1256;115149;-63
2024/01/13 06:18:19;;;;;;;9.70;6.10;;;;;;;1.30;85.38;100547.30;130072;1257;114719;-63
2024/01/13 06:21:22;;;;;;;9.40;5.50;;;;;;;1.29;85.03;100544.84;130059;1277;128998;-62
2024/01/13 06:24:24;;;;;;;8.70;5.20;;;;;;;1.29;85.30;100541.14;129922;1277;115203;-63
2024/01/13 06:27:26;;;;;;;8.00;5.00;;;;;;;1.27;84.85;100543.08;130312;1259;114979;-64
2024/01/13 06:30:28;;;;;;;8.10;4.80;;;;;;;1.24;85.23;100545.92;130040;1277;114850;-62
2024/01/13 06:33:30;;;;;;;7.60;5.40;;;;;;;1.21;85.21;100542.61;129965;1254;114711;-62
2024/01/13 06:36:33;;;;;;;9.10;5.60;;;;;;;1.19;85.30;100541.90;129961;1256;115391;-62
2024/01/13 06:39:35;;;;;;;9.80;6.10;;;;;;;1.17;85.33;100537.35;130019;1275;115081;-62
2024/01/13 06:42:38;;;;;;;7.40;4.70;;;;;;;1.16;85.28;100532.45;129669;1257;129114;-62
2024/01/13 06:45:40;;;;;;;9.00;5.80;;;;;;;1.15;85.26;100535.96;129959;1256;115126;-64
2024/01/13 06:48:44;;;;;;;8.20;5.30;;;;;;;1.13;85.35;100539.66;129756;1258;114783;-63
2024/01/13 06:51:46;;;;;;;10.40;5.70;;;;;;;1.12;85.32;100542.66;129916;1259;114804;-62
2024/01/13 06:54:48;;;;;;;8.60;5.30;;;;;;;1.09;85.27;100548.84;129932;1259;114772;-62
2024/01/13 06:57:51;;;;;;;7.10;4.60;;;;;;;1.08;85.44;100552.55;129623;1278;114717;-63
2024/01/13 07:00:53;;;;;;;8.20;5.50;;;;;;;1.07;85.45;100552.55;129876;1258;114745;-62
2024/01/13 07:03:55;;;;;;;8.30;5.70;;;;;;;1.08;85.14;100552.36;129821;1257;114861;-62
2024/01/13 07:06:58;;;;;;;10.10;6.70;;;;;;;1.09;85.11;100555.17;129716;1261;115252;-63
2024/01/13 07:10:00;;;;;;;15.70;8.20;;;;;;;1.10;85.39;100550.59;129787;1259;114836;-63
2024/01/13 07:13:03;;;;;;;10.50;8.20;;;;;;;1.11;85.31;100551.64;130211;1257;114729;-63
2024/01/13 07:16:05;;;;;;;11.30;6.30;;;;;;;1.10;85.51;100547.08;129865;1259;114717;-62
2024/01/13 07:19:07;;;;;;;11.70;6.90;;;;;;;1.11;85.22;100552.89;129933;1257;115678;-63
2024/01/13 07:22:09;;;;;;;9.60;5.90;;;;;;;1.13;85.64;100545.99;130013;1278;128906;-64
2024/01/13 07:25:11;;;;;;;12.40;6.90;;;;;;;1.16;85.43;100538.77;129869;1278;115373;-63
2024/01/13 07:28:14;;;;;;;11.30;6.00;;;;;;;1.20;85.87;100536.45;129846;1257;114908;-63
2024/01/13 07:31:16;;;;;;;9.90;7.10;;;;;;;1.23;85.74;100532.38;129935;1256;114819;-65
2024/01/13 07:34:18;;;;;;;12.50;7.30;;;;;;;1.25;85.77;100530.27;129924;1259;114723;-61
2024/01/13 07:37:20;;;;;;;8.80;4.90;;;;;;;1.26;85.43;100526.73;130018;1275;115231;-64
2024/01/13 07:40:23;;;;;;;8.80;6.00;;;;;;;1.27;85.65;100522.85;130371;1259;114715;-64
2024/01/13 07:43:25;;;;;;;8.00;4.90;;;;;;;1.27;85.36;100524.79;129878;1263;126777;-65
2024/01/13 07:46:27;;;;;;;6.20;4.70;;;;;;;1.30;85.48;100521.61;129974;1259;114998;-65
2024/01/13 07:49:30;;;;;;;9.30;6.00;;;;;;;1.34;85.42;100514.70;130142;1259;114798;-64
2024/01/13 07:52:32;;;;;;;6.20;4.70;;;;;;;1.38;85.51;100506.41;130226;1260;114874;-64
2024/01/13 07:55:34;;;;;;;7.50;5.10;;;;;;;1.44;85.58;100503.55;130379;1258;114651;-62
2024/01/13 07:58:38;;;;;;;7.60;5.40;;;;;;;1.48;85.54;100494.17;130320;1259;114718;-63
2024/01/13 08:01:44;;;;;;;7.90;5.10;;;;;;;1.54;85.31;100499.40;130005;1277;126926;-63
2024/01/13 08:04:46;;;;;;;8.20;5.20;;;;;;;1.60;85.39;100489.84;129670;1277;115191;-62
2024/01/13 08:07:48;;;;;;;9.60;5.70;;;;;;;1.66;85.45;100493.48;129978;1259;114785;-63
2024/01/13 08:10:51;;;;;;;9.10;6.30;;;;;;;1.73;85.36;100494.30;129971;1256;114710;-63
2024/01/13 08:13:53;;;;;;;9.70;5.30;;;;;;;1.78;85.37;100494.25;129598;1254;114983;-63
2024/01/13 08:16:55;;;;;;;7.30;5.30;;;;;;;1.80;85.13;100492.81;129727;1260;115856;-63
2024/01/13 08:19:58;;;;;;;9.90;5.60;;;;;;;1.86;85.11;100495.39;130204;1255;115398;-63
2024/01/13 08:23:03;;;;;;;7.60;5.20;;;;;;;1.90;85.01;100491.64;129735;1254;114873;-63
2024/01/13 08:26:05;;;;;;;7.60;4.60;;;;;;;1.94;85.02;100488.79;130169;1256;115365;-63
2024/01/13 08:29:08;;;;;;;8.60;6.00;;;;;;;1.94;84.69;100488.97;129994;1254;114828;-63
2024/01/13 08:32:10;;;;;;;8.90;6.00;;;;;;;1.97;84.89;100490.88;130088;1258;114721;-62
2024/01/13 08:35:13;;;;;;;9.50;5.10;;;;;;;1.98;84.68;100484.17;129778;1262;115101;-63
2024/01/13 08:38:16;;;;;;;9.60;6.60;;;;;;;2.01;84.76;100483.61;129885;1259;114745;-62
2024/01/13 08:41:18;;;;;;;8.10;4.60;;;;;;;2.03;84.76;100471.42;129972;1256;116170;-64
2024/01/13 08:44:20;;;;;;;7.50;4.70;;;;;;;2.06;84.59;100469.29;129546;1264;114800;-64
2024/01/13 08:47:23;;;;;;;6.30;3.60;;;;;;;2.08;84.55;100462.38;129950;1270;115242;-64
2024/01/13 08:50:25;;;;;;;9.90;5.70;;;;;;;2.12;84.27;100460.58;130336;1256;114859;-64
2024/01/13 08:53:27;;;;;;;8.20;5.30;;;;;;;2.17;84.22;100460.34;130290;1256;114719;-62
2024/01/13 08:56:29;;;;;;;9.20;4.80;;;;;;;2.23;84.40;100458.33;129719;1259;115157;-63
2024/01/13 08:59:37;;;;;;;8.70;5.50;;;;;;;2.29;84.15;100452.79;129857;1259;114742;-63
2024/01/13 09:02:40;;;;;;;8.90;6.30;;;;;;;2.37;84.21;100448.45;129910;1256;114688;-63
2024/01/13 09:05:42;;;;;;;8.40;5.50;;;;;;;2.45;84.18;100441.46;130132;1259;115161;-63
2024/01/13 09:08:45;;;;;;;8.50;6.50;;;;;;;2.52;83.97;100434.31;130334;1256;115410;-64
2024/01/13 09:11:48;;;;;;;8.50;5.60;;;;;;;2.56;83.88;100435.14;130317;1256;114802;-64
2024/01/13 09:14:49;;;;;;;8.00;5.00;;;;;;;2.61;83.67;100433.84;129721;1278;115323;-61
2024/01/13 09:17:52;;;;;;;7.10;4.60;;;;;;;2.70;83.85;100438.48;129988;1259;114714;-65
2024/01/13 09:20:54;;;;;;;8.50;5.40;;;;;;;2.79;83.74;100434.10;130313;1259;116216;-63
2024/01/13 09:23:57;;;;;;;7.80;5.70;;;;;;;2.84;83.46;100437.20;129556;1257;114859;-64
2024/01/13 09:27:00;;;;;;;5.30;3.70;;;;;;;2.86;83.16;100437.34;129673;1259;114934;-63
2024/01/13 09:30:03;;;;;;;6.60;4.70;;;;;;;2.87;82.96;100436.45;130002;1257;116476;-64
2024/01/13 09:33:07;;;;;;;6.70;4.80;;;;;;;2.89;82.79;100429.89;129998;1259;114763;-63
2024/01/13 09:36:09;;;;;;;5.50;3.60;;;;;;;2.94;82.67;100430.16;129985;1273;115315;-62
2024/01/13 09:39:13;;;;;;;6.50;4.40;;;;;;;2.97;82.80;100428.00;129892;1259;114777;-62
2024/01/13 09:42:41;;;;;;;4.90;3.50;;;;;;;3.04;82.62;100428.77;129926;1256;114725;-61
2024/01/13 09:45:44;;;;;;;7.00;4.60;;;;;;;3.07;82.26;100422.54;129487;1256;114945;-62
2024/01/13 09:48:47;;;;;;;5.70;3.50;;;;;;;3.08;81.96;100413.70;129847;1259;114694;-63
2024/01/13 09:51:51;;;;;;;7.30;3.90;;;;;;;3.09;81.84;100406.27;129971;1259;114824;-63
2024/01/13 09:54:58;;;;;;;5.50;4.00;;;;;;;3.12;81.73;100403.76;129968;1259;115315;-62
2024/01/13 09:58:00;;;;;;;17.80;8.90;;;;;;;3.15;81.64;100397.01;129601;1266;114880;-62
2024/01/13 10:01:06;;;;;;;10.00;5.70;;;;;;;3.16;81.52;100389.55;129680;1264;114793;-64
2024/01/13 10:04:09;;;;;;;10.20;5.70;;;;;;;3.17;81.33;100390.25;129817;1264;114745;-62
2024/01/13 10:07:11;;;;;;;6.20;3.90;;;;;;;3.18;81.24;100384.59;129928;1257;114754;-64
2024/01/13 10:10:16;;;;;;;5.90;4.60;;;;;;;3.21;81.36;100372.36;130300;1259;115266;-64
2024/01/13 10:13:20;;;;;;;7.40;4.50;;;;;;;3.23;81.12;100366.14;129801;1261;114789;-61
2024/01/13 10:16:31;;;;;;;;;;;;;;;3.28;81.18;100363.06;129734;1259;114814;-63
2024/01/13 10:19:51;;;;;;;5.70;3.30;;;;;;;3.31;81.16;100356.46;129885;1262;114837;-62
2024/01/13 10:22:54;;;;;;;5.80;3.80;;;;;;;3.36;81.05;100353.56;130272;1259;128790;-63
2024/01/13 10:25:56;;;;;;;5.40;3.50;;;;;;;3.34;80.34;100348.45;129725;1272;114757;-62
2024/01/13 10:28:59;;;;;;;6.10;4.20;;;;;;;3.37;80.69;100344.89;129843;1259;114626;-62
2024/01/13 10:32:01;;;;;;;4.90;3.00;;;;;;;3.41;80.61;100337.75;129877;1259;115244;-64
2024/01/13 10:35:07;;;;;;;6.60;4.10;;;;;;;3.40;80.39;100326.46;129360;1259;114714;-64
2024/01/13 10:38:10;;;;;;;6.70;4.60;;;;;;;3.44;80.63;100322.67;129855;1259;114860;-63
2024/01/13 10:41:13;;;;;;;6.50;3.50;;;;;;;3.48;80.43;100319.77;130095;1261;128931;-63
2024/01/13 10:44:16;;;;;;;7.50;3.20;;;;;;;3.49;80.10;100316.39;129956;1272;114704;-64
2024/01/13 10:47:29;;;;;;;7.00;4.10;;;;;;;3.53;80.27;100305.38;129775;1259;114722;-61
2024/01/13 10:50:31;;;;;;;6.40;4.50;;;;;;;3.56;80.03;100300.17;129954;1272;114678;-63
2024/01/13 10:53:34;;;;;;;5.40;3.60;;;;;;;3.61;79.84;100294.25;129985;1270;114909;-63
2024/01/13 10:56:38;;;;;;;5.90;3.40;;;;;;;3.65;79.82;100286.23;129864;1278;116101;-62
2024/01/13 10:59:43;;;;;;;8.20;3.90;;;;;;;3.71;79.47;100286.83;129774;1278;115046;-63
2024/01/13 11:02:46;;;;;;;8.30;5.10;;;;;;;3.74;79.57;100289.38;129668;1256;114840;-62
2024/01/13 11:05:49;;;;;;;6.70;3.90;;;;;;;3.76;79.08;100284.58;130172;1260;114719;-62
2024/01/13 11:08:52;;;;;;;6.70;4.20;;;;;;;3.76;79.01;100282.10;129887;1256;114784;-63
2024/01/13 11:12:27;;;;;;;4.90;3.00;;;;;;;3.77;79.13;100279.60;129645;1259;283589;-63
2024/01/13 11:15:33;;;;;;;3.90;2.90;;;;;;;3.79;78.71;100274.97;129763;1278;114774;-63
2024/01/13 11:18:37;;;;;;;7.20;4.10;;;;;;;3.81;78.65;100268.75;130088;1259;114785;-65
2024/01/13 11:21:41;;;;;;;7.10;4.20;;;;;;;3.83;78.52;100260.76;129934;1259;114700;-65
2024/01/13 11:24:47;;;;;;;5.70;3.60;;;;;;;3.85;78.33;100261.42;129649;1264;114710;-63
2024/01/13 11:28:00;;;;;;;6.60;3.60;;;;;;;3.84;78.23;100254.19;129694;1262;129112;-63
2024/01/13 11:31:03;;;;;;;5.20;3.10;;;;;;;3.84;78.05;100249.06;129500;1257;114905;-62
2024/01/13 11:34:10;;;;;;;6.30;3.70;;;;;;;3.83;77.98;100244.15;129596;1259;114782;-63
2024/01/13 11:37:22;;;;;;;4.80;2.60;;;;;;;3.83;78.02;100237.44;129582;1262;115264;-62
2024/01/13 11:40:26;;;;;;;4.70;2.90;;;;;;;3.80;77.75;100231.51;130230;1262;114841;-63
2024/01/13 11:43:28;;;;;;;5.30;3.50;;;;;;;3.76;77.63;100232.11;129574;1262;114793;-61
2024/01/13 11:46:33;;;;;;;5.60;2.80;;;;;;;3.75;77.74;100232.50;129881;1278;114793;-62
2024/01/13 11:49:36;;;;;;;;;;;;;;;3.71;77.16;100226.75;129488;1264;114761;-64
2024/01/13 11:52:38;;;;;;;5.90;3.70;;;;;;;3.66;77.48;100221.92;129949;1259;115046;-65
2024/01/13 11:55:40;;;;;;;5.10;3.30;;;;;;;3.66;77.28;100208.48;130085;1256;114789;-62
2024/01/13 11:58:42;;;;;;;6.80;4.70;;;;;;;3.68;77.39;100193.09;129547;1259;114820;-63
2024/01/13 12:01:44;;;;;;;6.10;3.30;;;;;;;3.72;77.50;100175.52;129990;1265;130846;-64
2024/01/13 12:04:49;;;;;;;6.00;3.50;;;;;;;3.77;77.43;100167.96;129591;1259;115380;-63
2024/01/13 12:07:51;;;;;;;5.90;3.80;;;;;;;3.79;77.08;100172.34;129960;1256;114794;-62
2024/01/13 12:10:54;;;;;;;5.60;4.20;;;;;;;3.81;77.07;100168.07;130141;1259;114722;-63
2024/01/13 12:13:55;;;;;;;6.20;3.80;;;;;;;3.82;76.93;100157.78;129712;1260;114980;-65
2024/01/13 12:17:00;;;;;;;5.90;3.80;;;;;;;3.86;76.94;100152.73;130218;1259;114735;-64
2024/01/13 12:20:05;;;;;;;5.10;3.40;;;;;;;3.92;76.81;100150.13;129703;1271;127424;-63
2024/01/13 12:23:07;;;;;;;5.60;3.90;;;;;;;3.97;76.57;100157.24;130193;1256;114845;-62
2024/01/13 12:26:09;;;;;;;5.50;4.00;;;;;;;4.00;76.61;100154.52;129627;1259;115003;-62
2024/01/13 12:29:14;;;;;;;5.70;4.30;;;;;;;4.03;76.27;100148.27;129397;1268;114756;-62
2024/01/13 12:32:17;;;;;;;5.10;4.30;;;;;;;4.02;75.88;100143.17;129406;1267;114764;-62
2024/01/13 12:35:19;;;;;;;6.50;4.40;;;;;;;3.99;75.96;100126.10;129818;1256;114738;-62
2024/01/13 12:38:21;;;;;;;4.60;2.90;;;;;;;3.96;75.79;100139.95;129737;1256;114724;-62
2024/01/13 12:41:23;;;;;;;4.30;2.70;;;;;;;3.89;75.41;100131.66;129810;1257;114809;-61
2024/01/13 12:44:26;;;;;;;8.70;4.20;;;;;;;3.77;75.18;100130.69;129690;1269;114806;-65
2024/01/13 12:47:28;;;;;;;6.10;3.60;;;;;;;3.71;75.18;100125.91;130450;1257;114790;-63
2024/01/13 12:50:34;;;;;;;6.00;3.40;;;;;;;3.65;75.08;100124.11;130126;1257;114834;-64
2024/01/13 12:53:36;;;;;;;4.80;3.50;;;;;;;3.60;75.17;100118.20;129699;1262;114750;-65
2024/01/13 12:56:39;;;;;;;5.30;3.70;;;;;;;3.56;75.00;100106.14;129799;1259;115137;-65
2024/01/13 12:59:41;;;;;;;4.80;4.00;;;;;;;3.51;75.03;100107.64;130198;1259;115245;-64
2024/01/13 13:02:44;;;;;;;4.80;3.30;;;;;;;3.45;74.78;100102.31;130316;1256;114766;-63
2024/01/13 13:05:47;;;;;;;5.70;3.10;;;;;;;3.40;74.72;100094.33;130159;1277;114795;-63
2024/01/13 13:08:49;;;;;;;6.10;4.50;;;;;;;3.35;74.71;100089.31;129675;1262;114639;-63
2024/01/13 13:11:54;;;;;;;7.50;4.40;;;;;;;3.32;74.72;100087.61;129505;1256;114764;-64
2024/01/13 13:14:56;;;;;;;5.30;3.20;;;;;;;3.28;74.53;100090.70;129802;1257;114792;-63
2024/01/13 13:17:58;;;;;;;5.80;3.20;;;;;;;3.25;74.46;100095.03;129816;1262;114955;-64
2024/01/13 13:21:00;;;;;;;5.70;3.60;;;;;;;3.20;74.46;100099.73;130315;1258;115024;-65
2024/01/13 13:24:04;;;;;;;5.60;3.40;;;;;;;3.15;74.46;100090.48;129705;1275;115332;-64
2024/01/13 13:27:06;;;;;;;4.70;3.10;;;;;;;3.11;74.34;100097.09;129802;1277;115071;-61
2024/01/13 13:30:11;;;;;;;5.40;4.10;;;;;;;3.06;74.47;100093.48;129845;1269;116251;-63
2024/01/13 13:33:13;;;;;;;4.70;2.90;;;;;;;3.00;74.44;100082.51;129790;1260;114987;-64
2024/01/13 13:36:15;;;;;;;6.30;4.30;;;;;;;2.96;74.42;100069.72;129709;1267;115536;-64
2024/01/13 13:39:17;;;;;;;5.50;3.70;;;;;;;2.94;74.54;100066.05;129644;1272;114899;-63
2024/01/13 13:42:19;;;;;;;6.90;4.30;;;;;;;2.92;74.57;100057.46;129549;1259;114700;-62
2024/01/13 13:45:21;;;;;;;5.40;3.40;;;;;;;2.89;74.45;100051.16;129793;1257;114830;-63
2024/01/13 13:48:23;;;;;;;5.00;4.00;;;;;;;2.88;74.54;100048.55;129440;1257;114940;-62
2024/01/13 13:51:25;;;;;;;4.40;2.90;;;;;;;2.89;74.73;100045.16;129901;1259;114695;-62
2024/01/13 13:54:27;;;;;;;5.80;3.60;;;;;;;2.88;74.65;100050.31;130052;1259;114823;-63
2024/01/13 13:57:29;;;;;;;6.10;4.40;;;;;;;2.87;74.54;100048.77;129912;1277;128817;-63